createdAt,value
2018-02-15T00:02:23.321Z,28.58
2018-02-15T00:04:51.620Z,28.58
2018-02-15T00:07:19.930Z,28.57
2018-02-15T00:09:48.242Z,28.58
2018-02-15T00:12:16.721Z,28.57
2018-02-15T00:14:45.074Z,28.56
2018-02-15T00:17:13.366Z,28.56
2018-02-15T00:19:41.790Z,28.52
2018-02-15T00:22:10.080Z,28.56
2018-02-15T00:24:38.389Z,28.56
2018-02-15T00:27:06.685Z,28.55
2018-02-15T00:29:34.985Z,28.54
2018-02-15T00:32:03.280Z,28.53
2018-02-15T00:34:31.586Z,28.53
2018-02-15T00:36:59.932Z,28.53
2018-02-15T00:39:28.246Z,28.52
2018-02-15T00:41:56.552Z,28.52
2018-02-15T00:44:24.834Z,28.52
2018-02-15T00:46:53.123Z,28.51
2018-02-15T00:49:21.418Z,28.52
2018-02-15T00:51:49.737Z,28.52
2018-02-15T00:54:18.045Z,28.51
2018-02-15T00:56:46.346Z,28.51
2018-02-15T00:59:14.650Z,28.51
2018-02-15T01:01:42.934Z,28.51
2018-02-15T01:04:11.251Z,28.52
2018-02-15T01:06:39.563Z,28.52
2018-02-15T01:09:07.869Z,28.51
2018-02-15T01:11:36.150Z,28.51
2018-02-15T01:14:04.432Z,28.51
2018-02-15T01:16:32.721Z,28.50
2018-02-15T01:19:01.034Z,28.51
2018-02-15T01:21:29.334Z,28.52
2018-02-15T01:23:57.626Z,28.53
2018-02-15T01:26:25.907Z,28.53
2018-02-15T01:28:54.214Z,28.54
2018-02-15T01:31:22.504Z,28.55
2018-02-15T01:33:50.798Z,28.54
2018-02-15T01:36:19.109Z,28.55
2018-02-15T01:38:47.401Z,28.55
2018-02-15T01:41:15.788Z,28.55
2018-02-15T01:43:44.070Z,28.55
2018-02-15T01:46:12.357Z,28.56
2018-02-15T01:48:40.634Z,28.56
2018-02-15T01:51:08.936Z,28.55
2018-02-15T01:53:37.245Z,28.56
2018-02-15T01:56:05.540Z,28.56
2018-02-15T01:58:33.848Z,28.54
2018-02-15T02:01:02.150Z,28.55
2018-02-15T02:03:30.300Z,28.55
2018-02-15T02:05:58.595Z,28.55
2018-02-15T02:08:26.889Z,28.55
2018-02-15T02:10:55.189Z,28.56
2018-02-15T02:13:23.474Z,28.58
2018-02-15T02:15:51.750Z,28.58
2018-02-15T02:18:20.144Z,28.59
2018-02-15T02:20:48.432Z,28.61
2018-02-15T02:23:16.715Z,28.66
2018-02-15T02:25:45.006Z,28.67
2018-02-15T02:28:13.299Z,28.67
2018-02-15T02:30:41.622Z,28.67
2018-02-15T02:33:09.922Z,28.67
2018-02-15T02:35:38.215Z,28.65
2018-02-15T02:38:06.542Z,28.63
2018-02-15T02:40:34.870Z,28.61
2018-02-15T02:43:03.206Z,28.58
2018-02-15T02:45:31.521Z,28.57
2018-02-15T02:47:59.815Z,28.53
2018-02-15T02:50:28.102Z,28.50
2018-02-15T02:52:56.399Z,28.47
2018-02-15T02:55:24.717Z,28.45
2018-02-15T02:57:53.001Z,28.43
2018-02-15T03:00:21.637Z,28.40
2018-02-15T03:02:49.952Z,28.38
2018-02-15T03:05:18.255Z,28.34
2018-02-15T03:07:46.558Z,28.29
2018-02-15T03:10:14.873Z,28.27
2018-02-15T03:12:42.952Z,28.22
2018-02-15T03:15:11.242Z,28.18
2018-02-15T03:17:39.545Z,28.15
2018-02-15T03:20:07.869Z,28.13
2018-02-15T03:22:36.175Z,28.13
2018-02-15T03:25:04.248Z,26.94
2018-02-15T03:27:32.560Z,24.31
2018-02-15T03:30:00.882Z,23.81
2018-02-15T03:32:29.184Z,24.16
2018-02-15T03:34:57.493Z,24.68
2018-02-15T03:37:25.802Z,25.08
2018-02-15T03:39:54.108Z,25.34
2018-02-15T03:42:22.398Z,25.58
2018-02-15T03:44:50.710Z,25.78
2018-02-15T03:47:19.020Z,25.97
2018-02-15T03:49:47.333Z,26.12
2018-02-15T03:52:15.644Z,26.31
2018-02-15T03:54:43.957Z,26.45
2018-02-15T03:57:12.261Z,26.58
2018-02-15T03:59:40.562Z,26.71
2018-02-15T04:02:09.065Z,26.85
2018-02-15T04:04:37.373Z,26.96
2018-02-15T04:07:05.677Z,27.10
2018-02-15T04:09:33.981Z,27.21
2018-02-15T04:12:02.267Z,27.32
2018-02-15T04:14:30.598Z,27.45
2018-02-15T04:16:58.913Z,27.55
2018-02-15T04:19:27.220Z,27.88
2018-02-15T04:21:55.281Z,28.43
2018-02-15T04:24:23.583Z,28.94
2018-02-15T04:26:51.891Z,29.34
2018-02-15T04:29:20.210Z,29.67
2018-02-15T04:31:48.517Z,29.91
2018-02-15T04:34:16.857Z,30.14
2018-02-15T04:36:45.196Z,30.37
2018-02-15T04:39:13.588Z,30.58
2018-02-15T04:41:43.102Z,30.74
2018-02-15T04:44:11.404Z,30.91
2018-02-15T04:46:39.705Z,31.10
2018-02-15T04:49:08.881Z,31.25
2018-02-15T04:51:37.187Z,31.40
2018-02-15T04:54:05.476Z,31.56
2018-02-15T04:56:33.778Z,31.66
2018-02-15T04:59:02.074Z,31.80
2018-02-15T05:01:30.369Z,31.88
2018-02-15T05:03:58.741Z,32.00
2018-02-15T05:06:26.877Z,32.10
2018-02-15T05:08:55.163Z,32.18
2018-02-15T05:11:23.461Z,32.28
2018-02-15T05:13:51.832Z,32.35
2018-02-15T05:16:20.222Z,32.43
2018-02-15T05:18:48.534Z,32.47
2018-02-15T05:21:16.838Z,32.50
2018-02-15T05:23:45.124Z,32.53
2018-02-15T05:26:13.482Z,32.54
2018-02-15T05:28:41.776Z,32.57
2018-02-15T05:31:10.059Z,32.59
2018-02-15T05:33:38.362Z,32.59
2018-02-15T05:36:06.669Z,32.58
2018-02-15T05:38:35.027Z,32.56
2018-02-15T05:41:03.357Z,32.54
2018-02-15T05:43:31.637Z,32.52
2018-02-15T05:45:59.937Z,32.50
2018-02-15T05:48:28.244Z,32.50
2018-02-15T05:50:56.582Z,32.50
2018-02-15T05:53:24.889Z,32.51
2018-02-15T05:55:53.199Z,32.55
2018-02-15T05:58:21.490Z,32.57
2018-02-15T06:00:49.793Z,32.59
2018-02-15T06:03:18.103Z,32.59
2018-02-15T06:05:46.410Z,32.60
2018-02-15T06:08:14.756Z,32.63
2018-02-15T06:10:43.050Z,32.61
2018-02-15T06:13:11.340Z,32.59
2018-02-15T06:15:39.647Z,32.59
2018-02-15T06:18:07.938Z,32.58
2018-02-15T06:20:36.232Z,32.56
2018-02-15T06:23:04.382Z,32.55
2018-02-15T06:25:32.667Z,32.51
2018-02-15T06:28:00.981Z,32.50
2018-02-15T06:30:29.279Z,32.46
2018-02-15T06:32:57.595Z,32.44
2018-02-15T06:35:25.885Z,32.41
2018-02-15T06:37:54.277Z,32.38
2018-02-15T06:40:22.554Z,32.37
2018-02-15T06:42:50.881Z,32.32
2018-02-15T06:45:19.206Z,32.30
2018-02-15T06:47:47.507Z,32.24
2018-02-15T06:50:15.822Z,32.21
2018-02-15T06:52:44.099Z,32.19
2018-02-15T06:55:12.395Z,29.35
2018-02-15T06:57:40.697Z,25.21
2018-02-15T07:00:09.012Z,23.58
2018-02-15T07:02:37.306Z,25.01
2018-02-15T07:05:05.649Z,25.93
2018-02-15T07:07:33.955Z,26.72
2018-02-15T07:10:02.271Z,27.17
2018-02-15T07:12:30.577Z,27.42
2018-02-15T07:14:58.904Z,27.54
2018-02-15T07:17:27.207Z,27.55
2018-02-15T07:19:55.551Z,27.54
2018-02-15T07:22:23.856Z,27.51
2018-02-15T07:24:52.155Z,27.47
2018-02-15T07:27:20.464Z,27.44
2018-02-15T07:29:48.750Z,27.36
2018-02-15T07:32:17.046Z,27.31
2018-02-15T07:34:45.368Z,27.27
2018-02-15T07:37:13.666Z,27.20
2018-02-15T07:39:41.978Z,27.15
2018-02-15T07:42:10.288Z,27.12
2018-02-15T07:44:38.632Z,27.11
2018-02-15T07:47:06.917Z,27.10
2018-02-15T07:49:35.044Z,27.05
2018-02-15T07:52:03.184Z,27.00
2018-02-15T07:54:31.330Z,26.92
2018-02-15T07:56:59.448Z,26.83
2018-02-15T07:59:27.579Z,26.74
2018-02-15T08:01:55.890Z,26.65
2018-02-15T08:04:24.232Z,26.58
2018-02-15T08:06:52.552Z,26.50
2018-02-15T08:09:20.866Z,26.43
2018-02-15T08:11:49.159Z,26.39
2018-02-15T08:14:17.567Z,25.47
2018-02-15T08:16:45.863Z,24.73
2018-02-15T08:19:14.175Z,24.76
2018-02-15T08:21:42.484Z,25.00
2018-02-15T08:24:10.780Z,25.26
2018-02-15T08:26:39.115Z,25.49
2018-02-15T08:29:07.468Z,25.69
2018-02-15T08:31:35.773Z,25.86
2018-02-15T08:34:04.074Z,26.04
2018-02-15T08:36:32.392Z,26.18
2018-02-15T08:39:00.503Z,26.27
2018-02-15T08:41:28.802Z,26.38
2018-02-15T08:43:57.117Z,26.47
2018-02-15T08:46:25.426Z,26.53
2018-02-15T08:48:53.752Z,26.57
2018-02-15T08:51:22.061Z,26.68
2018-02-15T08:53:50.362Z,26.78
2018-02-15T08:56:18.695Z,26.82
2018-02-15T08:58:47.746Z,26.79
2018-02-15T09:01:16.056Z,26.89
2018-02-15T09:03:44.358Z,26.98
2018-02-15T09:06:12.683Z,27.06
2018-02-15T09:08:40.991Z,27.14
2018-02-15T09:11:09.313Z,27.24
2018-02-15T09:13:37.624Z,27.33
2018-02-15T09:16:05.922Z,27.41
2018-02-15T09:18:34.232Z,27.48
2018-02-15T09:21:03.191Z,27.53
2018-02-15T09:23:31.533Z,27.54
2018-02-15T09:25:59.849Z,27.53
2018-02-15T09:28:28.150Z,27.47
2018-02-15T09:30:56.471Z,27.40
2018-02-15T09:33:24.773Z,27.44
2018-02-15T09:35:53.082Z,27.47
2018-02-15T09:38:21.370Z,27.37
2018-02-15T09:40:49.686Z,27.31
2018-02-15T09:43:18.135Z,27.30
2018-02-15T09:45:46.435Z,27.19
2018-02-15T09:48:14.726Z,27.29
2018-02-15T09:50:43.011Z,27.42
2018-02-15T09:53:11.305Z,27.49
2018-02-15T09:55:39.603Z,27.54
2018-02-15T09:58:07.898Z,27.54
2018-02-15T10:00:36.226Z,27.54
2018-02-15T10:03:04.513Z,27.53
2018-02-15T10:05:32.840Z,27.52
2018-02-15T10:08:01.161Z,27.51
2018-02-15T10:10:29.463Z,27.48
2018-02-15T10:12:57.913Z,27.47
2018-02-15T10:15:26.204Z,27.49
2018-02-15T10:17:54.503Z,27.44
2018-02-15T10:20:22.837Z,27.42
2018-02-15T10:22:51.127Z,27.44
2018-02-15T10:25:19.441Z,27.43
2018-02-15T10:27:47.758Z,27.46
2018-02-15T10:30:16.065Z,27.48
2018-02-15T10:32:44.446Z,27.52
2018-02-15T10:35:12.769Z,27.53
2018-02-15T10:37:42.526Z,27.53
2018-02-15T10:40:10.913Z,27.53
2018-02-15T10:42:39.204Z,27.50
2018-02-15T10:45:07.541Z,27.49
2018-02-15T10:47:35.840Z,27.48
2018-02-15T10:50:04.150Z,27.48
2018-02-15T10:52:32.460Z,27.47
2018-02-15T10:55:00.745Z,27.40
2018-02-15T10:57:29.039Z,27.24
2018-02-15T10:59:57.338Z,27.24
2018-02-15T11:02:25.464Z,27.25
2018-02-15T11:04:59.299Z,27.25
2018-02-15T11:07:27.594Z,27.24
2018-02-15T11:09:55.719Z,27.25
2018-02-15T11:12:24.064Z,27.31
2018-02-15T11:14:52.358Z,27.33
2018-02-15T11:17:20.684Z,27.33
2018-02-15T11:19:48.992Z,27.31
2018-02-15T11:22:17.400Z,27.25
2018-02-15T11:24:45.696Z,27.16
2018-02-15T11:27:14.048Z,27.12
2018-02-15T11:29:42.514Z,27.14
2018-02-15T11:32:10.881Z,27.21
2018-02-15T11:34:39.189Z,27.19
2018-02-15T11:37:07.487Z,27.22
2018-02-15T11:39:35.777Z,27.21
2018-02-15T11:42:04.089Z,27.21
2018-02-15T11:44:32.383Z,27.21
2018-02-15T11:47:00.685Z,27.21
2018-02-15T11:49:28.985Z,27.23
2018-02-15T11:51:57.337Z,27.22
2018-02-15T11:54:25.614Z,27.24
2018-02-15T11:56:53.932Z,27.25
2018-02-15T11:59:22.226Z,27.25
2018-02-15T12:01:50.596Z,27.26
2018-02-15T12:04:18.882Z,27.28
2018-02-15T12:06:47.166Z,27.31
2018-02-15T12:09:15.453Z,27.32
2018-02-15T12:12:02.017Z,27.35
2018-02-15T12:14:30.329Z,27.37
2018-02-15T12:16:58.621Z,27.41
2018-02-15T12:19:26.952Z,27.43
